sensor_id;sensor_type;location;lat;lon;timestamp;temperature;humidity
55121;DHT22;41019;48.512;9.036;2022-07-30T00:00:07;18.30;77.80
55121;DHT22;41019;48.512;9.036;2022-07-30T00:02:33;18.30;78.50
55121;DHT22;41019;48.512;9.036;2022-07-30T00:04:59;18.30;78.10
55121;DHT22;41019;48.512;9.036;2022-07-30T00:07:25;18.30;77.80
55121;DHT22;41019;48.512;9.036;2022-07-30T00:09:51;18.20;79.40
55121;DHT22;41019;48.512;9.036;2022-07-30T00:12:17;18.20;79.40
55121;DHT22;41019;48.512;9.036;2022-07-30T00:14:43;18.20;79.50
55121;DHT22;41019;48.512;9.036;2022-07-30T00:17:09;18.20;78.80
55121;DHT22;41019;48.512;9.036;2022-07-30T00:19:35;18.20;79.10
55121;DHT22;41019;48.512;9.036;2022-07-30T00:22:01;18.20;79.00
55121;DHT22;41019;48.512;9.036;2022-07-30T00:24:28;18.20;80.40
55121;DHT22;41019;48.512;9.036;2022-07-30T00:26:54;18.20;80.10
55121;DHT22;41019;48.512;9.036;2022-07-30T00:29:20;18.20;79.60
55121;DHT22;41019;48.512;9.036;2022-07-30T00:31:46;18.10;79.90
55121;DHT22;41019;48.512;9.036;2022-07-30T00:34:12;18.10;80.70
55121;DHT22;41019;48.512;9.036;2022-07-30T00:36:39;18.10;80.50
55121;DHT22;41019;48.512;9.036;2022-07-30T00:39:05;18.10;80.60
55121;DHT22;41019;48.512;9.036;2022-07-30T00:41:31;18.20;81.00
55121;DHT22;41019;48.512;9.036;2022-07-30T00:43:57;18.20;80.80
55121;DHT22;41019;48.512;9.036;2022-07-30T00:46:23;18.10;80.10
55121;DHT22;41019;48.512;9.036;2022-07-30T00:48:49;18.20;79.90
55121;DHT22;41019;48.512;9.036;2022-07-30T00:51:15;18.20;79.70
55121;DHT22;41019;48.512;9.036;2022-07-30T00:53:41;18.10;79.50
55121;DHT22;41019;48.512;9.036;2022-07-30T00:56:07;18.20;79.10
55121;DHT22;41019;48.512;9.036;2022-07-30T00:58:33;18.20;79.50
55121;DHT22;41019;48.512;9.036;2022-07-30T01:00:59;18.20;79.50
55121;DHT22;41019;48.512;9.036;2022-07-30T01:03:25;18.20;79.10
55121;DHT22;41019;48.512;9.036;2022-07-30T01:05:51;18.10;79.00
55121;DHT22;41019;48.512;9.036;2022-07-30T01:08:17;18.10;79.50
55121;DHT22;41019;48.512;9.036;2022-07-30T01:10:43;18.20;80.00
55121;DHT22;41019;48.512;9.036;2022-07-30T01:13:09;18.20;80.20
55121;DHT22;41019;48.512;9.036;2022-07-30T01:15:37;18.10;80.10
55121;DHT22;41019;48.512;9.036;2022-07-30T01:18:07;18.20;80.60
55121;DHT22;41019;48.512;9.036;2022-07-30T01:20:40;18.10;81.40
55121;DHT22;41019;48.512;9.036;2022-07-30T01:23:29;18.10;80.40
55121;DHT22;41019;48.512;9.036;2022-07-30T01:26:01;18.00;79.80
55121;DHT22;41019;48.512;9.036;2022-07-30T01:28:36;18.00;79.60
55121;DHT22;41019;48.512;9.036;2022-07-30T01:34:55;18.00;79.40
55121;DHT22;41019;48.512;9.036;2022-07-30T01:37:24;17.90;79.60
55121;DHT22;41019;48.512;9.036;2022-07-30T01:39:52;17.90;79.40
55121;DHT22;41019;48.512;9.036;2022-07-30T01:42:20;17.90;79.70
55121;DHT22;41019;48.512;9.036;2022-07-30T01:44:49;17.90;79.70
55121;DHT22;41019;48.512;9.036;2022-07-30T01:47:18;17.80;79.80
55121;DHT22;41019;48.512;9.036;2022-07-30T01:49:48;17.90;80.40
55121;DHT22;41019;48.512;9.036;2022-07-30T01:52:17;17.90;80.80
55121;DHT22;41019;48.512;9.036;2022-07-30T01:54:47;17.90;80.70
55121;DHT22;41019;48.512;9.036;2022-07-30T01:57:18;17.90;80.60
55121;DHT22;41019;48.512;9.036;2022-07-30T01:59:48;17.90;80.20
55121;DHT22;41019;48.512;9.036;2022-07-30T02:02:15;17.90;80.50
55121;DHT22;41019;48.512;9.036;2022-07-30T02:04:41;17.90;80.50
55121;DHT22;41019;48.512;9.036;2022-07-30T02:07:17;17.90;79.80
55121;DHT22;41019;48.512;9.036;2022-07-30T02:10:00;17.90;79.70
55121;DHT22;41019;48.512;9.036;2022-07-30T02:12:35;17.90;80.30
55121;DHT22;41019;48.512;9.036;2022-07-30T02:15:29;17.80;80.10
55121;DHT22;41019;48.512;9.036;2022-07-30T02:18:09;17.80;80.40
55121;DHT22;41019;48.512;9.036;2022-07-30T02:20:55;17.80;80.10
55121;DHT22;41019;48.512;9.036;2022-07-30T02:23:26;17.80;80.00
55121;DHT22;41019;48.512;9.036;2022-07-30T02:25:52;17.70;80.10
55121;DHT22;41019;48.512;9.036;2022-07-30T02:28:23;17.70;80.00
55121;DHT22;41019;48.512;9.036;2022-07-30T02:30:54;17.70;80.10
55121;DHT22;41019;48.512;9.036;2022-07-30T02:33:28;17.60;80.10
55121;DHT22;41019;48.512;9.036;2022-07-30T02:35:58;17.60;80.00
55121;DHT22;41019;48.512;9.036;2022-07-30T02:38:28;17.50;80.00
55121;DHT22;41019;48.512;9.036;2022-07-30T02:40:58;17.50;80.30
55121;DHT22;41019;48.512;9.036;2022-07-30T02:43:27;17.50;80.60
55121;DHT22;41019;48.512;9.036;2022-07-30T02:45:57;17.40;80.70
55121;DHT22;41019;48.512;9.036;2022-07-30T02:48:32;17.40;81.20
55121;DHT22;41019;48.512;9.036;2022-07-30T02:51:02;17.40;81.10
55121;DHT22;41019;48.512;9.036;2022-07-30T02:53:31;17.40;81.80
55121;DHT22;41019;48.512;9.036;2022-07-30T02:56:01;17.40;82.00
55121;DHT22;41019;48.512;9.036;2022-07-30T02:58:29;17.30;81.80
55121;DHT22;41019;48.512;9.036;2022-07-30T03:00:57;17.30;81.80
55121;DHT22;41019;48.512;9.036;2022-07-30T03:03:25;17.20;81.10
55121;DHT22;41019;48.512;9.036;2022-07-30T03:05:56;17.20;82.00
55121;DHT22;41019;48.512;9.036;2022-07-30T03:08:23;17.20;82.00
55121;DHT22;41019;48.512;9.036;2022-07-30T03:10:53;17.20;82.50
55121;DHT22;41019;48.512;9.036;2022-07-30T03:13:21;17.10;83.50
55121;DHT22;41019;48.512;9.036;2022-07-30T03:15:50;17.20;83.30
55121;DHT22;41019;48.512;9.036;2022-07-30T03:18:21;17.10;83.40
55121;DHT22;41019;48.512;9.036;2022-07-30T03:20:52;17.10;82.30
55121;DHT22;41019;48.512;9.036;2022-07-30T03:23:19;17.10;81.80
55121;DHT22;41019;48.512;9.036;2022-07-30T03:25:53;17.00;82.20
55121;DHT22;41019;48.512;9.036;2022-07-30T03:28:21;17.00;82.30
55121;DHT22;41019;48.512;9.036;2022-07-30T03:30:50;17.00;82.70
55121;DHT22;41019;48.512;9.036;2022-07-30T03:33:18;17.00;82.30
55121;DHT22;41019;48.512;9.036;2022-07-30T03:35:45;16.90;82.70
55121;DHT22;41019;48.512;9.036;2022-07-30T03:38:14;16.90;83.10
55121;DHT22;41019;48.512;9.036;2022-07-30T03:40:44;16.90;83.90
55121;DHT22;41019;48.512;9.036;2022-07-30T03:43:11;16.80;82.70
55121;DHT22;41019;48.512;9.036;2022-07-30T03:45:41;16.80;82.60
55121;DHT22;41019;48.512;9.036;2022-07-30T03:48:11;16.80;82.60
55121;DHT22;41019;48.512;9.036;2022-07-30T03:50:42;16.70;82.70
55121;DHT22;41019;48.512;9.036;2022-07-30T03:53:09;16.70;82.80
55121;DHT22;41019;48.512;9.036;2022-07-30T03:55:56;16.70;82.70
55121;DHT22;41019;48.512;9.036;2022-07-30T03:58:41;16.70;82.90
55121;DHT22;41019;48.512;9.036;2022-07-30T04:01:09;16.70;82.90
55121;DHT22;41019;48.512;9.036;2022-07-30T04:03:35;16.60;83.60
55121;DHT22;41019;48.512;9.036;2022-07-30T04:06:04;16.60;84.30
55121;DHT22;41019;48.512;9.036;2022-07-30T04:08:30;16.60;83.60
55121;DHT22;41019;48.512;9.036;2022-07-30T04:10:56;16.60;83.80
55121;DHT22;41019;48.512;9.036;2022-07-30T04:13:28;16.60;84.00
55121;DHT22;41019;48.512;9.036;2022-07-30T04:16:27;16.50;83.80
55121;DHT22;41019;48.512;9.036;2022-07-30T04:18:57;16.50;83.60
55121;DHT22;41019;48.512;9.036;2022-07-30T04:21:25;16.50;84.00
55121;DHT22;41019;48.512;9.036;2022-07-30T04:23:53;16.50;83.70
55121;DHT22;41019;48.512;9.036;2022-07-30T04:26:21;16.50;83.40
55121;DHT22;41019;48.512;9.036;2022-07-30T04:28:47;16.50;83.80
55121;DHT22;41019;48.512;9.036;2022-07-30T04:31:14;16.50;83.80
55121;DHT22;41019;48.512;9.036;2022-07-30T04:33:40;16.50;84.10
55121;DHT22;41019;48.512;9.036;2022-07-30T04:36:26;16.50;84.30
55121;DHT22;41019;48.512;9.036;2022-07-30T04:38:52;16.50;84.40
55121;DHT22;41019;48.512;9.036;2022-07-30T04:41:19;16.50;85.40
55121;DHT22;41019;48.512;9.036;2022-07-30T04:44:20;16.50;85.50
55121;DHT22;41019;48.512;9.036;2022-07-30T04:47:03;16.50;86.00
55121;DHT22;41019;48.512;9.036;2022-07-30T04:49:33;16.60;86.70
55121;DHT22;41019;48.512;9.036;2022-07-30T04:52:01;16.60;87.20
55121;DHT22;41019;48.512;9.036;2022-07-30T04:54:42;16.60;87.80
55121;DHT22;41019;48.512;9.036;2022-07-30T04:57:10;16.60;87.50
55121;DHT22;41019;48.512;9.036;2022-07-30T04:59:38;16.70;88.30
55121;DHT22;41019;48.512;9.036;2022-07-30T05:02:05;16.60;87.80
55121;DHT22;41019;48.512;9.036;2022-07-30T05:04:34;16.70;87.80
55121;DHT22;41019;48.512;9.036;2022-07-30T05:07:02;16.70;87.30
55121;DHT22;41019;48.512;9.036;2022-07-30T05:09:29;16.80;86.30
55121;DHT22;41019;48.512;9.036;2022-07-30T05:11:56;16.80;86.50
55121;DHT22;41019;48.512;9.036;2022-07-30T05:14:23;16.80;85.40
55121;DHT22;41019;48.512;9.036;2022-07-30T05:16:50;16.80;85.40
55121;DHT22;41019;48.512;9.036;2022-07-30T05:19:18;16.80;85.10
55121;DHT22;41019;48.512;9.036;2022-07-30T05:21:45;16.90;84.60
55121;DHT22;41019;48.512;9.036;2022-07-30T05:24:11;16.90;84.00
55121;DHT22;41019;48.512;9.036;2022-07-30T05:26:47;17.00;84.10
55121;DHT22;41019;48.512;9.036;2022-07-30T05:29:16;17.00;83.40
55121;DHT22;41019;48.512;9.036;2022-07-30T05:31:47;17.10;83.00
55121;DHT22;41019;48.512;9.036;2022-07-30T05:34:14;17.10;82.30
55121;DHT22;41019;48.512;9.036;2022-07-30T05:36:43;17.20;82.20
55121;DHT22;41019;48.512;9.036;2022-07-30T05:39:11;17.20;82.60
55121;DHT22;41019;48.512;9.036;2022-07-30T05:41:43;17.30;82.50
55121;DHT22;41019;48.512;9.036;2022-07-30T05:44:17;17.30;82.20
55121;DHT22;41019;48.512;9.036;2022-07-30T05:46:43;17.40;82.00
55121;DHT22;41019;48.512;9.036;2022-07-30T05:49:09;17.40;82.00
55121;DHT22;41019;48.512;9.036;2022-07-30T05:51:35;17.50;80.80
55121;DHT22;41019;48.512;9.036;2022-07-30T05:54:01;17.50;80.40
55121;DHT22;41019;48.512;9.036;2022-07-30T05:56:35;17.60;79.80
55121;DHT22;41019;48.512;9.036;2022-07-30T05:59:34;17.70;79.50
55121;DHT22;41019;48.512;9.036;2022-07-30T06:02:03;17.70;79.40
55121;DHT22;41019;48.512;9.036;2022-07-30T06:04:54;17.80;79.30
55121;DHT22;41019;48.512;9.036;2022-07-30T06:07:21;17.90;79.30
55121;DHT22;41019;48.512;9.036;2022-07-30T06:09:47;18.00;79.20
55121;DHT22;41019;48.512;9.036;2022-07-30T06:12:13;18.00;79.40
55121;DHT22;41019;48.512;9.036;2022-07-30T06:14:40;18.20;78.20
55121;DHT22;41019;48.512;9.036;2022-07-30T06:17:09;18.20;77.80
55121;DHT22;41019;48.512;9.036;2022-07-30T06:19:59;18.30;77.90
55121;DHT22;41019;48.512;9.036;2022-07-30T06:22:26;18.40;78.10
55121;DHT22;41019;48.512;9.036;2022-07-30T06:24:53;18.50;77.50
55121;DHT22;41019;48.512;9.036;2022-07-30T06:27:23;18.60;77.70
55121;DHT22;41019;48.512;9.036;2022-07-30T06:29:50;18.80;77.00
55121;DHT22;41019;48.512;9.036;2022-07-30T06:32:16;18.90;76.70
55121;DHT22;41019;48.512;9.036;2022-07-30T06:34:44;19.10;76.00
55121;DHT22;41019;48.512;9.036;2022-07-30T06:37:10;19.20;74.70
55121;DHT22;41019;48.512;9.036;2022-07-30T06:39:38;19.40;74.20
55121;DHT22;41019;48.512;9.036;2022-07-30T06:42:28;19.60;73.30
55121;DHT22;41019;48.512;9.036;2022-07-30T06:45:13;19.80;73.30
55121;DHT22;41019;48.512;9.036;2022-07-30T06:47:58;20.00;71.60
55121;DHT22;41019;48.512;9.036;2022-07-30T06:50:25;20.10;71.70
55121;DHT22;41019;48.512;9.036;2022-07-30T06:52:51;20.30;70.20
55121;DHT22;41019;48.512;9.036;2022-07-30T06:55:17;20.50;70.30
55121;DHT22;41019;48.512;9.036;2022-07-30T06:57:50;20.70;69.00
55121;DHT22;41019;48.512;9.036;2022-07-30T07:00:56;20.90;68.80
55121;DHT22;41019;48.512;9.036;2022-07-30T07:03:28;21.10;67.10
55121;DHT22;41019;48.512;9.036;2022-07-30T07:05:54;21.30;66.20
55121;DHT22;41019;48.512;9.036;2022-07-30T07:08:20;21.50;65.30
55121;DHT22;41019;48.512;9.036;2022-07-30T07:10:50;21.70;64.10
55121;DHT22;41019;48.512;9.036;2022-07-30T07:13:31;21.90;63.70
55121;DHT22;41019;48.512;9.036;2022-07-30T07:15:58;22.10;62.40
55121;DHT22;41019;48.512;9.036;2022-07-30T07:18:25;22.30;61.70
55121;DHT22;41019;48.512;9.036;2022-07-30T07:20:57;22.50;60.70
55121;DHT22;41019;48.512;9.036;2022-07-30T07:23:23;22.60;60.50
55121;DHT22;41019;48.512;9.036;2022-07-30T07:25:52;22.80;59.40
55121;DHT22;41019;48.512;9.036;2022-07-30T07:28:20;23.00;58.80
55121;DHT22;41019;48.512;9.036;2022-07-30T07:30:47;23.10;58.20
55121;DHT22;41019;48.512;9.036;2022-07-30T07:33:15;23.30;58.10
55121;DHT22;41019;48.512;9.036;2022-07-30T07:35:43;23.50;56.20
55121;DHT22;41019;48.512;9.036;2022-07-30T07:38:08;23.70;55.40
55121;DHT22;41019;48.512;9.036;2022-07-30T07:40:34;23.90;54.00
55121;DHT22;41019;48.512;9.036;2022-07-30T07:43:00;24.00;54.20
55121;DHT22;41019;48.512;9.036;2022-07-30T07:45:26;24.20;53.10
55121;DHT22;41019;48.512;9.036;2022-07-30T07:47:59;24.30;53.80
55121;DHT22;41019;48.512;9.036;2022-07-30T07:50:46;24.60;53.30
55121;DHT22;41019;48.512;9.036;2022-07-30T07:53:20;24.90;51.40
55121;DHT22;41019;48.512;9.036;2022-07-30T07:55:46;24.90;51.30
55121;DHT22;41019;48.512;9.036;2022-07-30T07:58:12;25.10;50.90
55121;DHT22;41019;48.512;9.036;2022-07-30T08:00:39;25.30;50.90
55121;DHT22;41019;48.512;9.036;2022-07-30T08:03:05;25.40;50.40
55121;DHT22;41019;48.512;9.036;2022-07-30T08:05:32;25.50;50.20
55121;DHT22;41019;48.512;9.036;2022-07-30T08:08:03;25.70;49.70
55121;DHT22;41019;48.512;9.036;2022-07-30T08:10:58;25.80;47.50
55121;DHT22;41019;48.512;9.036;2022-07-30T08:13:44;26.10;47.00
55121;DHT22;41019;48.512;9.036;2022-07-30T08:16:28;26.40;46.70
55121;DHT22;41019;48.512;9.036;2022-07-30T08:19:13;26.70;43.90
55121;DHT22;41019;48.512;9.036;2022-07-30T08:21:44;26.90;42.90
55121;DHT22;41019;48.512;9.036;2022-07-30T08:24:14;26.90;41.70
55121;DHT22;41019;48.512;9.036;2022-07-30T08:26:40;27.00;42.60
55121;DHT22;41019;48.512;9.036;2022-07-30T08:29:06;27.30;41.50
55121;DHT22;41019;48.512;9.036;2022-07-30T08:31:32;27.40;41.40
55121;DHT22;41019;48.512;9.036;2022-07-30T08:33:58;27.50;40.30
55121;DHT22;41019;48.512;9.036;2022-07-30T08:36:25;27.70;40.50
55121;DHT22;41019;48.512;9.036;2022-07-30T08:38:52;27.80;41.10
55121;DHT22;41019;48.512;9.036;2022-07-30T08:41:19;28.00;40.50
55121;DHT22;41019;48.512;9.036;2022-07-30T08:43:49;28.20;40.90
55121;DHT22;41019;48.512;9.036;2022-07-30T08:46:17;28.40;39.90
55121;DHT22;41019;48.512;9.036;2022-07-30T08:48:58;28.60;39.30
55121;DHT22;41019;48.512;9.036;2022-07-30T08:51:24;28.70;40.00
55121;DHT22;41019;48.512;9.036;2022-07-30T08:54:00;28.70;38.60
55121;DHT22;41019;48.512;9.036;2022-07-30T08:56:29;28.80;37.20
55121;DHT22;41019;48.512;9.036;2022-07-30T08:58:59;29.00;38.10
55121;DHT22;41019;48.512;9.036;2022-07-30T09:01:25;29.20;38.00
55121;DHT22;41019;48.512;9.036;2022-07-30T09:03:55;29.50;36.70
55121;DHT22;41019;48.512;9.036;2022-07-30T09:06:21;29.40;36.80
55121;DHT22;41019;48.512;9.036;2022-07-30T09:08:47;29.60;37.20
55121;DHT22;41019;48.512;9.036;2022-07-30T09:11:13;29.50;38.00
55121;DHT22;41019;48.512;9.036;2022-07-30T09:13:41;29.50;36.40
55121;DHT22;41019;48.512;9.036;2022-07-30T09:16:24;29.70;36.30
55121;DHT22;41019;48.512;9.036;2022-07-30T09:18:53;29.90;35.40
55121;DHT22;41019;48.512;9.036;2022-07-30T09:21:24;30.00;35.00
55121;DHT22;41019;48.512;9.036;2022-07-30T09:24:03;30.10;36.00
55121;DHT22;41019;48.512;9.036;2022-07-30T09:26:55;30.30;34.50
55121;DHT22;41019;48.512;9.036;2022-07-30T09:29:39;30.40;35.30
55121;DHT22;41019;48.512;9.036;2022-07-30T09:32:24;30.50;34.30
55121;DHT22;41019;48.512;9.036;2022-07-30T09:35:12;30.70;34.30
55121;DHT22;41019;48.512;9.036;2022-07-30T09:38:05;30.90;34.00
55121;DHT22;41019;48.512;9.036;2022-07-30T09:40:50;30.90;33.30
55121;DHT22;41019;48.512;9.036;2022-07-30T09:43:48;30.90;34.20
55121;DHT22;41019;48.512;9.036;2022-07-30T09:46:22;31.00;34.40
55121;DHT22;41019;48.512;9.036;2022-07-30T09:48:48;31.20;33.70
55121;DHT22;41019;48.512;9.036;2022-07-30T09:51:14;31.30;34.50
55121;DHT22;41019;48.512;9.036;2022-07-30T09:53:56;31.50;33.10
55121;DHT22;41019;48.512;9.036;2022-07-30T09:56:27;31.60;33.80
55121;DHT22;41019;48.512;9.036;2022-07-30T09:58:54;31.70;34.30
55121;DHT22;41019;48.512;9.036;2022-07-30T10:01:20;31.90;33.00
55121;DHT22;41019;48.512;9.036;2022-07-30T10:04:30;32.00;32.30
55121;DHT22;41019;48.512;9.036;2022-07-30T10:07:17;32.10;32.90
55121;DHT22;41019;48.512;9.036;2022-07-30T10:09:43;32.00;31.30
55121;DHT22;41019;48.512;9.036;2022-07-30T10:12:13;32.10;31.70
55121;DHT22;41019;48.512;9.036;2022-07-30T10:14:45;32.00;30.80
55121;DHT22;41019;48.512;9.036;2022-07-30T10:17:12;32.00;31.50
55121;DHT22;41019;48.512;9.036;2022-07-30T10:19:41;31.90;31.70
55121;DHT22;41019;48.512;9.036;2022-07-30T10:22:26;31.70;32.20
55121;DHT22;41019;48.512;9.036;2022-07-30T10:25:11;31.80;33.00
55121;DHT22;41019;48.512;9.036;2022-07-30T10:28:16;32.10;32.70
55121;DHT22;41019;48.512;9.036;2022-07-30T10:30:43;32.30;32.00
55121;DHT22;41019;48.512;9.036;2022-07-30T10:33:10;32.10;32.40
55121;DHT22;41019;48.512;9.036;2022-07-30T10:35:37;32.40;31.90
55121;DHT22;41019;48.512;9.036;2022-07-30T10:38:08;32.60;31.40
55121;DHT22;41019;48.512;9.036;2022-07-30T10:40:46;32.90;31.20
55121;DHT22;41019;48.512;9.036;2022-07-30T10:48:50;33.00;31.10
55121;DHT22;41019;48.512;9.036;2022-07-30T10:51:17;33.20;31.00
55121;DHT22;41019;48.512;9.036;2022-07-30T10:53:45;33.00;30.90
55121;DHT22;41019;48.512;9.036;2022-07-30T10:56:23;32.80;31.90
55121;DHT22;41019;48.512;9.036;2022-07-30T10:59:08;32.60;31.40
55121;DHT22;41019;48.512;9.036;2022-07-30T11:04:20;32.00;32.00
55121;DHT22;41019;48.512;9.036;2022-07-30T11:06:47;32.00;33.30
55121;DHT22;41019;48.512;9.036;2022-07-30T11:12:09;31.80;31.20
55121;DHT22;41019;48.512;9.036;2022-07-30T11:17:18;31.40;31.90
55121;DHT22;41019;48.512;9.036;2022-07-30T11:22:32;31.40;33.50
55121;DHT22;41019;48.512;9.036;2022-07-30T11:27:58;31.40;31.90
55121;DHT22;41019;48.512;9.036;2022-07-30T11:35:32;32.10;31.30
55121;DHT22;41019;48.512;9.036;2022-07-30T11:38:20;32.10;30.80
55121;DHT22;41019;48.512;9.036;2022-07-30T11:43:23;32.10;31.70
55121;DHT22;41019;48.512;9.036;2022-07-30T11:48:37;32.20;30.80
55121;DHT22;41019;48.512;9.036;2022-07-30T11:51:03;31.80;30.50
55121;DHT22;41019;48.512;9.036;2022-07-30T11:53:30;31.60;31.40
55121;DHT22;41019;48.512;9.036;2022-07-30T11:55:58;31.30;32.50
55121;DHT22;41019;48.512;9.036;2022-07-30T12:00:59;31.30;31.70
55121;DHT22;41019;48.512;9.036;2022-07-30T12:03:29;31.70;32.60
55121;DHT22;41019;48.512;9.036;2022-07-30T12:06:12;32.00;32.20
55121;DHT22;41019;48.512;9.036;2022-07-30T12:08:45;32.00;32.00
55121;DHT22;41019;48.512;9.036;2022-07-30T12:11:12;31.70;30.90
55121;DHT22;41019;48.512;9.036;2022-07-30T12:13:39;31.80;30.50
55121;DHT22;41019;48.512;9.036;2022-07-30T12:16:24;31.90;30.10
55121;DHT22;41019;48.512;9.036;2022-07-30T12:18:49;32.10;31.40
55121;DHT22;41019;48.512;9.036;2022-07-30T12:21:16;32.10;30.80
55121;DHT22;41019;48.512;9.036;2022-07-30T12:24:03;32.30;31.40
55121;DHT22;41019;48.512;9.036;2022-07-30T12:26:33;32.70;30.80
55121;DHT22;41019;48.512;9.036;2022-07-30T12:29:02;32.80;30.00
55121;DHT22;41019;48.512;9.036;2022-07-30T12:31:30;33.20;31.40
55121;DHT22;41019;48.512;9.036;2022-07-30T12:33:58;33.40;30.60
55121;DHT22;41019;48.512;9.036;2022-07-30T12:36:26;33.60;30.00
55121;DHT22;41019;48.512;9.036;2022-07-30T12:38:53;33.50;30.00
55121;DHT22;41019;48.512;9.036;2022-07-30T12:41:19;33.80;29.50
55121;DHT22;41019;48.512;9.036;2022-07-30T12:43:50;34.10;30.20
55121;DHT22;41019;48.512;9.036;2022-07-30T12:46:17;34.20;29.30
55121;DHT22;41019;48.512;9.036;2022-07-30T12:51:27;33.80;29.00
55121;DHT22;41019;48.512;9.036;2022-07-30T12:53:55;33.20;29.20
55121;DHT22;41019;48.512;9.036;2022-07-30T12:56:26;32.80;30.30
55121;DHT22;41019;48.512;9.036;2022-07-30T12:58:54;32.50;30.30
55121;DHT22;41019;48.512;9.036;2022-07-30T13:01:43;32.60;30.50
55121;DHT22;41019;48.512;9.036;2022-07-30T13:04:11;32.40;30.40
55121;DHT22;41019;48.512;9.036;2022-07-30T13:06:37;32.10;30.60
55121;DHT22;41019;48.512;9.036;2022-07-30T13:09:05;31.90;30.40
55121;DHT22;41019;48.512;9.036;2022-07-30T13:11:43;31.90;30.90
55121;DHT22;41019;48.512;9.036;2022-07-30T13:14:11;31.70;31.50
55121;DHT22;41019;48.512;9.036;2022-07-30T13:16:39;31.70;31.50
55121;DHT22;41019;48.512;9.036;2022-07-30T13:19:08;31.50;31.50
55121;DHT22;41019;48.512;9.036;2022-07-30T13:21:36;31.40;31.70
55121;DHT22;41019;48.512;9.036;2022-07-30T13:24:03;31.30;32.80
55121;DHT22;41019;48.512;9.036;2022-07-30T13:26:29;31.40;32.40
55121;DHT22;41019;48.512;9.036;2022-07-30T13:28:56;31.30;31.50
55121;DHT22;41019;48.512;9.036;2022-07-30T13:31:22;31.50;32.40
55121;DHT22;41019;48.512;9.036;2022-07-30T13:33:48;31.70;32.80
55121;DHT22;41019;48.512;9.036;2022-07-30T13:36:15;32.00;32.10
55121;DHT22;41019;48.512;9.036;2022-07-30T13:38:41;32.40;31.70
55121;DHT22;41019;48.512;9.036;2022-07-30T13:41:07;32.70;31.50
55121;DHT22;41019;48.512;9.036;2022-07-30T13:43:34;33.10;31.70
55121;DHT22;41019;48.512;9.036;2022-07-30T13:46:02;33.10;30.40
55121;DHT22;41019;48.512;9.036;2022-07-30T13:48:29;32.70;30.30
55121;DHT22;41019;48.512;9.036;2022-07-30T13:50:55;32.40;30.30
55121;DHT22;41019;48.512;9.036;2022-07-30T13:53:21;32.10;31.10
55121;DHT22;41019;48.512;9.036;2022-07-30T13:55:47;31.90;30.80
55121;DHT22;41019;48.512;9.036;2022-07-30T13:58:13;31.70;31.10
55121;DHT22;41019;48.512;9.036;2022-07-30T14:00:39;31.60;31.50
55121;DHT22;41019;48.512;9.036;2022-07-30T14:03:09;31.50;31.80
55121;DHT22;41019;48.512;9.036;2022-07-30T14:05:37;31.40;31.70
55121;DHT22;41019;48.512;9.036;2022-07-30T14:08:05;31.20;32.40
55121;DHT22;41019;48.512;9.036;2022-07-30T14:10:33;31.10;32.20
55121;DHT22;41019;48.512;9.036;2022-07-30T14:13:00;30.90;33.40
55121;DHT22;41019;48.512;9.036;2022-07-30T14:15:29;30.70;33.50
55121;DHT22;41019;48.512;9.036;2022-07-30T14:17:56;30.50;34.00
55121;DHT22;41019;48.512;9.036;2022-07-30T14:20:23;30.30;34.20
55121;DHT22;41019;48.512;9.036;2022-07-30T14:22:50;30.10;34.30
55121;DHT22;41019;48.512;9.036;2022-07-30T14:25:16;30.00;34.70
55121;DHT22;41019;48.512;9.036;2022-07-30T14:27:42;29.90;35.10
55121;DHT22;41019;48.512;9.036;2022-07-30T14:30:09;29.90;35.00
55121;DHT22;41019;48.512;9.036;2022-07-30T14:32:36;29.90;35.70
55121;DHT22;41019;48.512;9.036;2022-07-30T14:35:07;29.90;35.20
55121;DHT22;41019;48.512;9.036;2022-07-30T14:37:37;30.10;35.00
55121;DHT22;41019;48.512;9.036;2022-07-30T14:40:08;30.30;35.50
55121;DHT22;41019;48.512;9.036;2022-07-30T14:42:36;30.40;35.80
55121;DHT22;41019;48.512;9.036;2022-07-30T14:45:09;30.40;35.10
55121;DHT22;41019;48.512;9.036;2022-07-30T14:47:35;30.40;34.90
55121;DHT22;41019;48.512;9.036;2022-07-30T14:50:01;30.50;33.90
55121;DHT22;41019;48.512;9.036;2022-07-30T14:52:27;30.40;34.00
55121;DHT22;41019;48.512;9.036;2022-07-30T14:54:53;30.40;34.30
55121;DHT22;41019;48.512;9.036;2022-07-30T14:57:19;30.30;34.70
55121;DHT22;41019;48.512;9.036;2022-07-30T14:59:45;30.30;34.70
55121;DHT22;41019;48.512;9.036;2022-07-30T15:02:11;30.60;33.90
55121;DHT22;41019;48.512;9.036;2022-07-30T15:04:37;30.60;32.80
55121;DHT22;41019;48.512;9.036;2022-07-30T15:07:03;30.50;33.40
55121;DHT22;41019;48.512;9.036;2022-07-30T15:09:29;30.60;33.40
55121;DHT22;41019;48.512;9.036;2022-07-30T15:11:54;30.30;32.70
55121;DHT22;41019;48.512;9.036;2022-07-30T15:14:20;30.10;33.30
55121;DHT22;41019;48.512;9.036;2022-07-30T15:16:46;30.00;33.50
55121;DHT22;41019;48.512;9.036;2022-07-30T15:19:12;30.00;33.50
55121;DHT22;41019;48.512;9.036;2022-07-30T15:21:38;29.70;33.30
55121;DHT22;41019;48.512;9.036;2022-07-30T15:24:04;29.60;34.10
55121;DHT22;41019;48.512;9.036;2022-07-30T15:26:30;29.50;33.40
